createdAt,value
2022-07-27T00:01:18.334Z,98634.91
2022-07-27T00:12:28.506Z,98617.23
2022-07-27T00:15:40.985Z,98617.77
2022-07-27T00:22:33.234Z,98622.88
2022-07-27T00:25:45.148Z,98617.67
2022-07-27T00:28:57.116Z,98632.09
2022-07-27T00:32:12.592Z,98626.09
2022-07-27T00:35:23.367Z,98634.13
2022-07-27T00:38:35.167Z,98637.34
2022-07-27T00:41:46.903Z,98644.27
2022-07-27T00:44:58.937Z,98642.32
2022-07-27T00:48:12.163Z,98639.34
2022-07-27T00:51:25.968Z,98637.41
2022-07-27T00:54:37.773Z,98631.41
2022-07-27T00:57:58.525Z,98622.06
2022-07-27T01:01:04.276Z,98635.08
2022-07-27T01:04:15.930Z,98641.53
2022-07-27T01:07:28.297Z,98649.72
2022-07-27T01:10:41.764Z,98642.25
2022-07-27T01:13:53.980Z,98638.79
2022-07-27T01:17:05.824Z,98654.02
2022-07-27T01:20:18.943Z,98651.70
2022-07-27T01:23:32.568Z,98644.02
2022-07-27T01:26:45.417Z,98643.02
2022-07-27T01:29:58.094Z,98642.19
2022-07-27T01:33:13.258Z,98642.00
2022-07-27T01:36:25.329Z,98641.47
2022-07-27T01:39:41.747Z,98644.02
2022-07-27T01:42:56.957Z,98641.52
2022-07-27T01:46:09.290Z,98640.69
2022-07-27T01:49:21.108Z,98641.52
2022-07-27T01:52:33.132Z,98646.04
2022-07-27T01:55:45.156Z,98638.38
2022-07-27T01:58:56.886Z,98645.76
2022-07-27T02:02:08.547Z,98646.75
2022-07-27T02:05:20.817Z,98637.41
2022-07-27T02:08:32.864Z,98642.95
2022-07-27T02:11:59.185Z,98638.96
2022-07-27T02:15:15.780Z,98642.48
2022-07-27T02:18:35.807Z,98641.82
2022-07-27T02:21:42.172Z,98639.48
2022-07-27T02:24:54.019Z,98630.80
2022-07-27T02:28:05.761Z,98634.97
2022-07-27T02:31:17.310Z,98644.84
2022-07-27T02:34:29.100Z,98646.70
2022-07-27T02:37:40.951Z,98637.84
2022-07-27T02:40:52.919Z,98649.58
2022-07-27T02:44:07.687Z,98652.41
2022-07-27T02:47:19.790Z,98656.30
2022-07-27T02:50:31.898Z,98656.30
2022-07-27T02:53:43.739Z,98660.62
2022-07-27T02:56:56.276Z,98658.78
2022-07-27T03:00:08.696Z,98660.80
2022-07-27T03:03:23.388Z,98668.51
2022-07-27T03:06:37.345Z,98670.38
2022-07-27T03:09:52.492Z,98682.91
2022-07-27T03:13:03.227Z,98685.44
2022-07-27T03:16:15.315Z,98682.25
2022-07-27T03:19:30.298Z,98686.10
2022-07-27T03:22:42.518Z,98680.75
2022-07-27T03:25:54.277Z,98690.46
2022-07-27T03:29:06.144Z,98694.49
2022-07-27T03:32:18.046Z,98689.14
2022-07-27T03:35:30.472Z,98677.16
2022-07-27T03:38:42.563Z,98691.97
2022-07-27T03:41:54.226Z,98700.66
2022-07-27T03:45:05.942Z,98696.63
2022-07-27T03:48:17.643Z,98700.50
2022-07-27T03:51:29.170Z,98702.81
2022-07-27T03:54:41.035Z,98701.28
2022-07-27T03:57:52.783Z,98690.09
2022-07-27T04:01:04.551Z,98700.32
2022-07-27T04:04:16.516Z,98707.17
2022-07-27T04:07:28.100Z,98702.48
2022-07-27T04:10:39.778Z,98700.80
2022-07-27T04:13:54.423Z,98691.78
2022-07-27T04:17:09.433Z,98709.16
2022-07-27T04:20:21.250Z,98715.31
2022-07-27T04:23:37.940Z,98710.48
2022-07-27T04:26:46.937Z,98711.13
2022-07-27T04:29:58.509Z,98710.47
2022-07-27T04:33:10.330Z,98704.05
2022-07-27T04:36:22.020Z,98712.17
2022-07-27T04:39:33.753Z,98709.13
2022-07-27T04:42:49.259Z,98707.23
2022-07-27T04:45:59.375Z,98708.89
2022-07-27T04:49:11.323Z,98713.25
2022-07-27T04:52:26.449Z,98727.82
2022-07-27T04:55:38.116Z,98718.23
2022-07-27T04:58:49.819Z,98712.54
2022-07-27T05:02:01.426Z,98719.86
2022-07-27T05:05:14.612Z,98728.19
2022-07-27T05:08:26.884Z,98727.75
2022-07-27T05:11:38.690Z,98731.09
2022-07-27T05:14:50.262Z,98736.11
2022-07-27T05:18:02.023Z,98735.33
2022-07-27T05:21:13.941Z,98734.95
2022-07-27T05:24:25.620Z,98724.63
2022-07-27T05:27:54.224Z,98727.11
2022-07-27T05:30:52.518Z,98724.23
2022-07-27T05:34:04.377Z,98737.83
2022-07-27T05:37:16.240Z,98728.03
2022-07-27T05:40:28.408Z,98738.88
2022-07-27T05:43:40.204Z,98739.93
2022-07-27T05:46:51.908Z,98746.30
2022-07-27T05:50:03.458Z,98746.77
2022-07-27T05:53:15.479Z,98745.91
2022-07-27T05:56:27.591Z,98740.42
2022-07-27T05:59:39.756Z,98741.31
2022-07-27T06:02:51.912Z,98744.97
2022-07-27T06:06:21.345Z,98743.25
2022-07-27T06:09:33.069Z,98752.21
2022-07-27T06:12:48.086Z,98755.88
2022-07-27T06:16:00.980Z,98755.80
2022-07-27T06:19:13.078Z,98755.73
2022-07-27T06:22:25.169Z,98758.63
2022-07-27T06:25:40.451Z,98762.55
2022-07-27T06:28:53.076Z,98773.31
2022-07-27T06:32:04.878Z,98755.39
2022-07-27T06:35:17.857Z,98771.66
2022-07-27T06:38:31.379Z,98770.83
2022-07-27T06:41:43.185Z,98770.19
2022-07-27T06:44:56.974Z,98764.51
2022-07-27T06:48:09.243Z,98775.77
2022-07-27T06:51:20.987Z,98763.33
2022-07-27T07:01:12.144Z,98766.27
2022-07-27T07:04:25.286Z,98763.00
2022-07-27T07:07:37.584Z,98759.98
2022-07-27T07:10:51.083Z,98769.41
2022-07-27T07:14:02.993Z,98777.50
2022-07-27T07:17:14.671Z,98777.88
2022-07-27T07:20:26.978Z,98782.30
2022-07-27T07:23:38.873Z,98791.13
2022-07-27T07:26:50.456Z,98785.70
2022-07-27T07:30:03.194Z,98783.41
2022-07-27T07:33:15.000Z,98751.25
2022-07-27T07:36:27.003Z,98775.34
2022-07-27T07:39:38.755Z,98778.01
2022-07-27T07:43:02.613Z,98776.40
2022-07-27T07:46:14.870Z,98780.75
2022-07-27T07:49:39.259Z,98795.71
2022-07-27T07:52:40.792Z,98790.71
2022-07-27T07:55:52.618Z,98801.52
2022-07-27T07:59:05.165Z,98812.30
2022-07-27T08:02:16.957Z,98826.00
2022-07-27T08:05:29.809Z,98821.01
2022-07-27T08:08:41.909Z,98826.00
2022-07-27T08:11:53.586Z,98825.17
2022-07-27T08:15:05.276Z,98815.67
2022-07-27T08:18:17.614Z,98813.87
2022-07-27T08:21:31.629Z,98811.23
2022-07-27T08:24:42.972Z,98814.33
2022-07-27T08:27:55.487Z,98807.15
2022-07-27T08:31:12.175Z,98801.66
2022-07-27T08:34:22.251Z,98807.61
2022-07-27T08:37:34.149Z,98795.77
2022-07-27T08:40:47.573Z,98792.52
2022-07-27T08:44:02.434Z,98794.26
2022-07-27T08:47:16.874Z,98793.13
2022-07-27T08:50:30.740Z,98790.16
2022-07-27T08:53:53.154Z,98785.21
2022-07-27T08:56:57.367Z,98781.39
2022-07-27T09:00:12.551Z,98783.44
2022-07-27T09:03:27.484Z,98784.39
2022-07-27T09:06:54.434Z,98784.70
2022-07-27T09:10:04.874Z,98776.96
2022-07-27T09:13:29.394Z,98791.41
2022-07-27T09:17:28.883Z,98785.64
2022-07-27T09:20:06.334Z,98782.92
2022-07-27T09:23:26.047Z,98776.52
2022-07-27T09:26:38.569Z,98783.18
2022-07-27T09:29:50.341Z,98763.33
2022-07-27T09:33:06.872Z,98775.48
2022-07-27T09:36:19.764Z,98769.34
2022-07-27T09:39:33.185Z,98761.14
2022-07-27T09:45:59.056Z,98762.36
2022-07-27T09:49:12.311Z,98748.83
2022-07-27T09:52:33.472Z,98746.56
2022-07-27T09:55:45.881Z,98736.16
2022-07-27T09:59:00.045Z,98734.92
2022-07-27T10:02:13.204Z,98732.41
2022-07-27T10:05:26.067Z,98734.97
2022-07-27T10:08:39.015Z,98729.72
2022-07-27T10:11:51.781Z,98731.58
2022-07-27T10:15:03.488Z,98738.66
2022-07-27T10:18:20.164Z,98742.84
2022-07-27T10:21:32.799Z,98737.48
2022-07-27T10:24:51.224Z,98744.20
2022-07-27T10:28:18.958Z,98744.31
2022-07-27T10:31:33.947Z,98737.22
2022-07-27T10:34:48.168Z,98734.34
2022-07-27T10:38:21.760Z,98730.63
2022-07-27T11:20:41.856Z,98723.44
2022-07-27T11:32:50.806Z,98714.45
2022-07-27T11:36:08.034Z,98706.61
2022-07-27T11:42:48.917Z,98702.51
2022-07-27T11:46:00.748Z,98694.88
2022-07-27T11:49:16.218Z,98691.71
2022-07-27T11:52:27.915Z,98687.33
2022-07-27T11:55:39.744Z,98695.27
2022-07-27T11:59:17.596Z,98698.70
2022-07-27T12:02:29.754Z,98690.48
2022-07-27T12:05:41.633Z,98683.08
2022-07-27T12:08:53.496Z,98687.21
2022-07-27T12:12:10.080Z,98683.38
2022-07-27T12:18:49.898Z,98680.56
2022-07-27T12:22:02.495Z,98679.18
2022-07-27T12:25:29.963Z,98676.44
2022-07-27T12:28:42.450Z,98675.00
2022-07-27T12:31:58.697Z,98671.69
2022-07-27T12:35:32.813Z,98685.05
2022-07-27T12:38:48.742Z,98678.61
2022-07-27T12:42:12.761Z,98680.22
2022-07-27T12:45:27.751Z,98673.50
2022-07-27T12:48:45.767Z,98670.90
2022-07-27T12:51:57.960Z,98673.11
2022-07-27T12:55:15.532Z,98666.52
2022-07-27T12:58:26.017Z,98671.44
2022-07-27T13:01:38.226Z,98662.03
2022-07-27T13:04:51.373Z,98668.43
2022-07-27T13:08:04.992Z,98673.18
2022-07-27T13:11:17.163Z,98672.38
2022-07-27T13:14:29.378Z,98664.17
2022-07-27T13:17:42.224Z,98665.60
2022-07-27T13:20:54.077Z,98663.63
2022-07-27T13:24:07.158Z,98665.95
2022-07-27T13:27:18.961Z,98661.95
2022-07-27T13:30:30.823Z,98656.35
2022-07-27T13:33:42.659Z,98670.30
2022-07-27T13:36:54.492Z,98660.37
2022-07-27T13:40:06.706Z,98663.17
2022-07-27T13:43:19.574Z,98664.64
2022-07-27T13:46:31.832Z,98666.09
2022-07-27T13:49:43.839Z,98660.38
2022-07-27T13:52:56.144Z,98641.22
2022-07-27T13:56:08.061Z,98653.28
2022-07-27T13:59:20.254Z,98652.77
2022-07-27T14:02:32.330Z,98655.38
2022-07-27T14:05:49.202Z,98650.05
2022-07-27T14:08:58.464Z,98642.95
2022-07-27T14:12:13.773Z,98644.65
2022-07-27T14:15:25.837Z,98643.58
2022-07-27T14:18:38.191Z,98646.78
2022-07-27T14:21:50.096Z,98638.97
2022-07-27T14:25:01.752Z,98638.03
2022-07-27T14:28:13.735Z,98634.66
2022-07-27T14:31:25.523Z,98645.01
2022-07-27T14:34:37.638Z,98641.00
2022-07-27T14:37:49.304Z,98634.34
2022-07-27T14:41:01.940Z,98642.92
2022-07-27T14:44:14.185Z,98627.31
2022-07-27T14:47:28.052Z,98650.67
2022-07-27T14:50:39.818Z,98639.97
2022-07-27T14:53:51.832Z,98635.72
2022-07-27T14:57:06.410Z,98632.45
2022-07-27T15:00:22.103Z,98639.13
2022-07-27T15:03:33.768Z,98640.69
2022-07-27T15:06:57.316Z,98645.73
2022-07-27T15:19:39.307Z,98628.95
2022-07-27T15:31:26.245Z,98636.08
2022-07-27T15:43:40.332Z,98631.30
2022-07-27T16:23:01.872Z,98612.78
2022-07-27T16:29:21.321Z,98613.80
2022-07-27T16:35:41.062Z,98611.73
2022-07-27T16:38:57.210Z,98601.70
2022-07-27T16:42:12.563Z,98601.08
2022-07-27T16:45:24.148Z,98601.76
2022-07-27T16:48:41.801Z,98600.62
2022-07-27T16:51:57.129Z,98568.04
2022-07-27T16:55:13.073Z,98605.62
2022-07-27T16:58:25.724Z,98597.11
2022-07-27T17:01:37.681Z,98609.25
2022-07-27T17:04:49.563Z,98606.30
2022-07-27T17:08:01.311Z,98600.53
2022-07-27T17:11:14.357Z,98609.85
2022-07-27T17:14:26.410Z,98611.88
2022-07-27T17:17:38.741Z,98612.11
2022-07-27T17:20:50.566Z,98610.58
2022-07-27T17:24:04.598Z,98613.86
2022-07-27T17:27:16.558Z,98610.20
2022-07-27T17:30:28.465Z,98619.29
2022-07-27T17:33:40.777Z,98612.67
2022-07-27T17:36:53.374Z,98623.08
2022-07-27T17:40:05.014Z,98620.57
2022-07-27T17:43:17.226Z,98616.67
2022-07-27T17:46:32.351Z,98615.72
2022-07-27T17:49:46.006Z,98619.37
2022-07-27T17:52:59.513Z,98626.41
2022-07-27T17:59:40.093Z,98626.72
2022-07-27T18:02:52.509Z,98631.39
2022-07-27T18:06:07.007Z,98632.07
2022-07-27T18:09:19.204Z,98624.97
2022-07-27T18:12:35.731Z,98640.48
2022-07-27T18:15:58.110Z,98643.97
2022-07-27T18:19:14.454Z,98653.75
2022-07-27T18:22:33.096Z,98662.98
2022-07-27T18:25:45.000Z,98669.24
2022-07-27T18:32:04.188Z,98675.25
2022-07-27T18:35:18.381Z,98684.97
2022-07-27T19:21:04.787Z,98738.80
2022-07-27T19:31:24.941Z,98755.54
2022-07-27T19:34:36.990Z,98763.70
2022-07-27T20:25:20.997Z,98799.41
2022-07-27T21:56:50.580Z,98860.41
2022-07-27T22:06:08.581Z,98866.23
2022-07-27T23:09:05.613Z,98917.52
2022-07-27T23:18:19.578Z,98925.50
2022-07-27T23:21:31.343Z,98932.89
2022-07-27T23:24:44.355Z,98928.70
2022-07-27T23:27:57.106Z,98929.23
2022-07-27T23:31:08.945Z,98929.64
2022-07-27T23:34:20.961Z,98929.38
2022-07-27T23:37:33.192Z,98932.22
2022-07-27T23:40:44.969Z,98929.48
2022-07-27T23:43:57.042Z,98937.16
2022-07-27T23:47:08.994Z,98945.69
2022-07-27T23:50:22.972Z,98945.45
2022-07-27T23:53:34.773Z,98942.12
2022-07-27T23:56:46.431Z,98945.82
2022-07-27T23:59:58.323Z,98949.86
